Airfield :
LOGIN :

Register | Disclaimer

   EN    FR    IT 

 










Legend :    VFR   Marginal VFR   IFR   Intensive IFR   Very Intensive IFR
Visi :
Ceiling :
>= 8 km
>= 3000ft
5 to 8 km
1000 to 3000 ft
1500m to 5 km
500 to 1000 ft
800 to 1500m
200 to 500 ft
< 800m
< 200 ft
Symbols :   Thunderstorms  Fog  Heavy snow  Heavy precipitations  Wind > 20 kt
SIGMETs :     Misc.  Thunderstorms  Icing  Turbulence  Mountain Waves  Volcanic Ashes






- Airport Elevation : 129 ft
- IATA code : ZCN


ETHC - Celle

CURRENT METAR :
  • 201720Z 19010KT 9999 SCT030 BKN050 09/04 Q1009 BLU FCST CANCEL

EXPIRED METARs :
  • 201620Z 18009KT 9999 FEW016 SCT032 BKN048 08/04 Q1010 BLU BLU
  • 201520Z 19011KT 9999 FEW016 BKN030 BKN050 09/05 Q1011 BLU BLU

TAF AMD TAF ETHC
Valid from the 20 at 12:00 until the 20 at 21:00 UTC


201659Z 2012/2021 19012KT 9999 NSW SCT020 BKN035
BECMG 2019/2021 26018G33KT 8000 -RA SCT015 BKN025
TEMPO 2021/2024 27025G40KT 4000 RA SCT010 BKN15
PROB30 2022/2024 27025G45KT 2500 RA SCT007 BKN010 CANCEL 1730



MET'MAP, your aeronautical weather chart ! - Copyright ORBIFLY December 2007 - Disclaimer

ORBIFLY MET'MAP TEAM :

Programming & Development : Alexandra Zaïnal
Concept & original design : Baudouin d'Aumeries
Assistance for programming : Marc-Olivier Méhu
Technical & hardware support : Manuel Goepfert

Contact : metmap@orbifly.com




SOURCES & CREDITS :

   NOAA